This is the latest recevied weather packets stored in our database for station/object W6ORV. If no packets are shown the sender has not sent any weather packets the latest 10 day(s).
| Time | Temp. | Humidity | Pressure | Rain* | Wind** | Luminosity | Snow |
|---|---|---|---|---|---|---|---|
| 1777572155 | 21.67° C | 48% | 4299.1 hPa | 0 mm | - | 835 W/m² | - |
| 1777571850 | 21.67° C | 49% | 4299.3 hPa | 0 mm | - | 796 W/m² | - |
| 1777571546 | 21.11° C | 51% | 4299.2 hPa | 0 mm | - | 835 W/m² | - |
| 1777571243 | 20.56° C | 52% | 4299.5 hPa | 0 mm | - | 838 W/m² | - |
| 1777570940 | 19.44° C | 56% | 4299.5 hPa | 0 mm | - | 765 W/m² | - |
| 1777570635 | 20° C | 58% | 4299.4 hPa | 0 mm | - | 801 W/m² | - |
| 1777570333 | 20° C | 57% | 4299.8 hPa | 0 mm | - | 802 W/m² | - |
| 1777570028 | 19.44° C | 57% | 4299.7 hPa | 0 mm | - | 820 W/m² | - |
| 1777569724 | 19.44° C | 58% | 4299.9 hPa | 0 mm | - | 809 W/m² | - |
| 1777569419 | 19.44° C | 59% | 4299.5 hPa | 0 mm | - | 790 W/m² | - |
| 1777569116 | 18.89° C | 60% | 4299.7 hPa | 0 mm | - | 781 W/m² | - |
| 1777568814 | 18.33° C | 61% | 4299.5 hPa | 0 mm | - | 752 W/m² | - |
| 1777568511 | 18.33° C | 62% | 4299.7 hPa | 0 mm | - | 749 W/m² | - |
| 1777568207 | 17.22° C | 66% | 4299.7 hPa | 0 mm | - | 711 W/m² | - |
| 1777567904 | 17.78° C | 65% | 4299.8 hPa | 0 mm | - | 672 W/m² | - |
| 1777567600 | 17.22° C | 65% | 4299.8 hPa | 0 mm | - | 668 W/m² | - |
| 1777567297 | 16.67° C | 67% | 4299.8 hPa | 0 mm | - | 655 W/m² | - |
| 1777566996 | 16.67° C | 68% | 4299.9 hPa | 0 mm | - | 617 W/m² | - |
| 1777566693 | 16.67° C | 66% | 4300 hPa | 0 mm | - | 590 W/m² | - |
| 1777566391 | 16.67° C | 68% | 4299.9 hPa | 0 mm | - | 597 W/m² | - |
| 1777566088 | 16.11° C | 71% | 4299.7 hPa | 0 mm | - | 550 W/m² | - |
| 1777565783 | 16.11° C | 70% | 4300 hPa | 0 mm | - | 518 W/m² | - |
| 1777565480 | 15.56° C | 71% | 4300 hPa | 0 mm | - | 466 W/m² | - |
| 1777565176 | 15° C | 75% | 4299.9 hPa | 0 mm | - | 413 W/m² | - |
| 1777564872 | 15° C | 75% | 4300 hPa | 0 mm | - | 418 W/m² | - |
* Rain latest hour (hover to see other rain measurements)
** Current wind speed in m/s (hover to see current wind gust speed)